createdAt,value
2017-12-06T05:00:40.046Z,1023.35
2017-12-06T05:01:05.556Z,1023.32
2017-12-06T05:01:31.100Z,1023.27
2017-12-06T05:01:56.581Z,1023.3
2017-12-06T05:02:22.126Z,1023.26
2017-12-06T05:02:47.613Z,1023.27
2017-12-06T05:03:13.104Z,1023.29
2017-12-06T05:03:38.583Z,1023.29
2017-12-06T05:04:04.030Z,1023.32
2017-12-06T05:04:29.519Z,1023.33
2017-12-06T05:05:28.040Z,1023.33
2017-12-06T05:05:53.527Z,1023.29
2017-12-06T05:06:19.017Z,1023.31
2017-12-06T05:06:44.551Z,1023.3
2017-12-06T05:07:10.049Z,1023.29
2017-12-06T05:07:35.592Z,1023.29
2017-12-06T05:08:01.112Z,1023.26
2017-12-06T05:08:26.606Z,1023.27
2017-12-06T05:08:52.164Z,1023.29
2017-12-06T05:09:17.536Z,1023.28
2017-12-06T05:09:42.995Z,1023.29
2017-12-06T05:10:08.465Z,1023.27
2017-12-06T05:10:33.964Z,1023.31
2017-12-06T05:10:59.471Z,1023.27
2017-12-06T05:11:24.939Z,1023.28
2017-12-06T05:11:50.421Z,1023.29
2017-12-06T05:12:15.932Z,1023.27
2017-12-06T05:12:41.431Z,1023.29
2017-12-06T05:13:06.912Z,1023.32
2017-12-06T05:13:32.390Z,1023.3
2017-12-06T05:13:57.908Z,1023.3
2017-12-06T05:14:23.397Z,1023.31
2017-12-06T05:15:26.986Z,1023.35
2017-12-06T05:15:52.482Z,1023.29
2017-12-06T05:16:17.994Z,1023.32
2017-12-06T05:16:43.488Z,1023.29
2017-12-06T05:17:09.020Z,1023.31
2017-12-06T05:17:34.554Z,1023.34
2017-12-06T05:18:00.073Z,1023.31
2017-12-06T05:18:25.565Z,1023.26
2017-12-06T05:18:51.037Z,1023.31
2017-12-06T05:19:16.536Z,1023.31
2017-12-06T05:19:42.053Z,1023.27
2017-12-06T05:20:07.558Z,1023.29
2017-12-06T05:20:33.062Z,1023.25
2017-12-06T05:20:58.546Z,1023.3
2017-12-06T05:21:24.059Z,1023.24
2017-12-06T05:21:49.588Z,1023.24
2017-12-06T05:22:15.072Z,1023.29
2017-12-06T05:22:40.575Z,1023.29
2017-12-06T05:23:06.038Z,1023.24
2017-12-06T05:23:31.543Z,1023.28
2017-12-06T05:23:57.065Z,1023.24
2017-12-06T05:24:22.586Z,1023.26
2017-12-06T05:24:48.079Z,1023.26
2017-12-06T05:25:13.613Z,1023.24
2017-12-06T05:25:39.054Z,1023.2
2017-12-06T05:26:04.530Z,1023.19
2017-12-06T05:26:30.007Z,1023.19
2017-12-06T05:26:55.540Z,1023.21
2017-12-06T05:27:21.001Z,1023.23
2017-12-06T05:27:46.490Z,1023.23
2017-12-06T05:28:11.941Z,1023.3
2017-12-06T05:28:37.472Z,1023.21
2017-12-06T05:29:02.948Z,1023.26
2017-12-06T05:29:28.394Z,1023.2
2017-12-06T05:29:53.860Z,1023.2
2017-12-06T05:30:19.375Z,1023.23
2017-12-06T05:30:44.941Z,1023.21
2017-12-06T05:31:10.402Z,1023.26
2017-12-06T05:31:35.848Z,1023.23
2017-12-06T05:32:01.277Z,1023.18
2017-12-06T05:32:26.741Z,1023.21
2017-12-06T05:32:52.247Z,1023.21
2017-12-06T05:33:17.765Z,1023.23
2017-12-06T05:33:43.220Z,1023.19
2017-12-06T05:34:08.711Z,1023.19
2017-12-06T05:34:34.201Z,1023.19
2017-12-06T05:34:59.707Z,1023.15
2017-12-06T05:35:25.145Z,1023.13
2017-12-06T05:35:50.652Z,1023.12
2017-12-06T05:36:16.107Z,1023.16
2017-12-06T05:36:41.563Z,1023.08
2017-12-06T05:37:07.026Z,1023.11
2017-12-06T05:37:32.519Z,1023.09
2017-12-06T05:37:58.058Z,1023.11
2017-12-06T05:38:23.559Z,1023.11
2017-12-06T05:38:49.020Z,1023.11
2017-12-06T05:39:14.576Z,1023.1
2017-12-06T05:39:40.066Z,1023.08
2017-12-06T05:40:05.578Z,1023.1
2017-12-06T05:40:31.092Z,1023.1
2017-12-06T05:40:56.578Z,1023.12
2017-12-06T05:41:22.037Z,1023.2
2017-12-06T05:41:47.584Z,1023.16
2017-12-06T05:42:13.043Z,1023.15
2017-12-06T05:42:38.543Z,1023.13
2017-12-06T05:43:57.515Z,1023.09
2017-12-06T05:44:22.976Z,1023.09
2017-12-06T05:44:49.433Z,1023.11
2017-12-06T05:45:14.958Z,1023.14
2017-12-06T05:45:40.428Z,1023.12
2017-12-06T05:46:54.181Z,1023.09
2017-12-06T05:47:19.677Z,1023.09
2017-12-06T05:47:45.198Z,1023.12
2017-12-06T05:48:10.662Z,1023.08
2017-12-06T05:48:36.173Z,1023.1
2017-12-06T05:49:01.661Z,1023.11
2017-12-06T05:49:27.160Z,1023.04
2017-12-06T05:49:52.657Z,1023.09
2017-12-06T05:50:18.162Z,1023.09
2017-12-06T05:50:43.737Z,1023.08
2017-12-06T05:51:09.218Z,1023.08
2017-12-06T05:51:34.690Z,1023.07
2017-12-06T05:52:00.184Z,1023.17
2017-12-06T05:52:25.697Z,1023.12
2017-12-06T05:52:51.164Z,1023.12
2017-12-06T05:53:16.651Z,1023.17
2017-12-06T05:53:42.152Z,1023.12
2017-12-06T05:54:07.667Z,1023.14
2017-12-06T05:54:33.210Z,1023.12
2017-12-06T05:54:58.712Z,1023.17
2017-12-06T05:55:24.231Z,1023.15
2017-12-06T05:55:49.724Z,1023.13
2017-12-06T05:57:03.535Z,1023.17
2017-12-06T05:57:29.008Z,1023.11
2017-12-06T05:57:54.493Z,1023.19
2017-12-06T05:58:20.014Z,1023.18
2017-12-06T05:58:45.561Z,1023.1
2017-12-06T05:59:11.048Z,1023.1
2017-12-06T05:59:36.541Z,1023.09
2017-12-06T06:00:02.023Z,1023.09
2017-12-06T06:00:27.492Z,1023.12
2017-12-06T06:00:52.956Z,1023.19
2017-12-06T06:01:18.451Z,1023.12
2017-12-06T06:01:43.949Z,1023.2
2017-12-06T06:02:09.434Z,1023.14
2017-12-06T06:02:34.883Z,1023.16
2017-12-06T06:03:00.364Z,1023.14
2017-12-06T06:03:25.893Z,1023.16
2017-12-06T06:03:51.325Z,1023.15
2017-12-06T06:04:16.833Z,1023.14
2017-12-06T06:04:42.290Z,1023.11
2017-12-06T06:05:07.790Z,1023.14
2017-12-06T06:05:33.237Z,1023.16
2017-12-06T06:05:58.730Z,1023.16
2017-12-06T06:06:24.231Z,1023.15
2017-12-06T06:06:49.685Z,1023.13
2017-12-06T06:07:15.204Z,1023.09
2017-12-06T06:07:40.676Z,1023.14
2017-12-06T06:08:06.160Z,1023.11
2017-12-06T06:08:31.631Z,1023.12
2017-12-06T06:08:57.128Z,1023.11
2017-12-06T06:09:22.669Z,1023.1
2017-12-06T06:09:48.164Z,1023.12
2017-12-06T06:10:13.648Z,1023.12
2017-12-06T06:10:39.166Z,1023.13
2017-12-06T06:11:04.669Z,1023.16
2017-12-06T06:11:30.153Z,1023.14
2017-12-06T06:11:55.669Z,1023.14
2017-12-06T06:12:21.185Z,1023.16
2017-12-06T06:12:46.618Z,1023.13
2017-12-06T06:13:45.148Z,1023.16
2017-12-06T06:14:10.668Z,1023.2
2017-12-06T06:14:36.144Z,1023.19
2017-12-06T06:15:01.654Z,1023.21
2017-12-06T06:15:27.121Z,1023.22
2017-12-06T06:15:52.604Z,1023.19
2017-12-06T06:16:18.090Z,1023.18
2017-12-06T06:16:43.548Z,1023.21
2017-12-06T06:17:09.049Z,1023.17
2017-12-06T06:17:34.548Z,1023.19
2017-12-06T06:18:00.022Z,1023.13
2017-12-06T06:18:25.524Z,1023.18
2017-12-06T06:18:50.977Z,1023.18
2017-12-06T06:19:16.468Z,1023.21
2017-12-06T06:19:42.009Z,1023.2
2017-12-06T06:20:07.510Z,1023.23
2017-12-06T06:20:33.026Z,1023.21
2017-12-06T06:20:58.568Z,1023.2
2017-12-06T06:21:24.049Z,1023.22
2017-12-06T06:22:27.682Z,1023.17
2017-12-06T06:22:53.145Z,1023.19
2017-12-06T06:23:18.635Z,1023.19
2017-12-06T06:23:44.114Z,1023.16
2017-12-06T06:25:02.990Z,1023.18
2017-12-06T06:25:28.473Z,1023.16
2017-12-06T06:25:53.960Z,1023.17
2017-12-06T06:26:19.468Z,1023.17
2017-12-06T06:26:44.987Z,1023.16
2017-12-06T06:27:10.471Z,1023.21
2017-12-06T06:28:19.168Z,1023.14
2017-12-06T06:28:44.665Z,1023.16
2017-12-06T06:29:10.145Z,1023.14
2017-12-06T06:29:35.655Z,1023.16
2017-12-06T06:30:01.109Z,1023.14
2017-12-06T06:30:26.615Z,1023.08
2017-12-06T06:30:52.138Z,1023.1
2017-12-06T06:31:17.606Z,1023.07
2017-12-06T06:31:43.135Z,1023.08
2017-12-06T06:32:08.648Z,1023.09
2017-12-06T06:32:34.176Z,1023.1
2017-12-06T06:32:59.725Z,1023.09
2017-12-06T06:33:25.213Z,1023.07
2017-12-06T06:33:50.692Z,1023.06
2017-12-06T06:34:16.160Z,1023.09
2017-12-06T06:34:41.671Z,1023.02
2017-12-06T06:35:07.177Z,1023.06
2017-12-06T06:35:32.662Z,1023.03
2017-12-06T06:35:58.135Z,1022.99
2017-12-06T06:36:23.637Z,1022.99
2017-12-06T06:36:49.142Z,1023.03
2017-12-06T06:37:14.635Z,1023.01
2017-12-06T06:37:40.095Z,1023.07
2017-12-06T06:38:44.755Z,1023.03
2017-12-06T06:39:10.233Z,1023.01
2017-12-06T06:39:35.720Z,1023
2017-12-06T06:40:01.197Z,1023.04
2017-12-06T06:40:26.717Z,1023.03
2017-12-06T06:40:52.214Z,1023
2017-12-06T06:41:17.692Z,1023.09
2017-12-06T06:41:43.162Z,1023.04
2017-12-06T06:42:08.749Z,1023.02
2017-12-06T06:42:34.173Z,1022.99
2017-12-06T06:42:59.677Z,1023.06
2017-12-06T06:43:25.188Z,1023.07
2017-12-06T06:43:50.662Z,1023.01
2017-12-06T06:44:16.133Z,1023.06
2017-12-06T06:44:41.611Z,1023.03
2017-12-06T06:45:07.114Z,1023.1
2017-12-06T06:45:32.674Z,1023.08
2017-12-06T06:45:58.199Z,1023.05
2017-12-06T06:46:23.695Z,1023.02
2017-12-06T06:46:49.176Z,1023.02
2017-12-06T06:47:14.635Z,1023
2017-12-06T06:47:40.119Z,1023.05
2017-12-06T06:48:38.671Z,1022.96
2017-12-06T06:49:04.159Z,1023
2017-12-06T06:49:29.641Z,1022.97
2017-12-06T06:49:55.132Z,1022.96
2017-12-06T06:50:20.651Z,1022.98
2017-12-06T06:50:46.132Z,1023
2017-12-06T06:51:11.632Z,1022.98
2017-12-06T06:51:37.101Z,1022.94
2017-12-06T06:52:02.587Z,1022.99
2017-12-06T06:52:28.093Z,1022.97
2017-12-06T06:52:53.661Z,1022.96
2017-12-06T06:53:19.136Z,1022.94
2017-12-06T06:53:44.604Z,1022.98
2017-12-06T06:54:10.132Z,1022.98
2017-12-06T06:54:35.627Z,1022.97
2017-12-06T06:55:01.113Z,1022.99
2017-12-06T06:56:20.019Z,1022.99
2017-12-06T06:56:45.500Z,1022.98
2017-12-06T06:57:10.967Z,1022.94
2017-12-06T06:57:36.469Z,1022.92
2017-12-06T06:58:01.962Z,1022.98
2017-12-06T06:58:27.464Z,1022.99
2017-12-06T06:58:52.961Z,1022.95
2017-12-06T06:59:18.454Z,1022.98
2017-12-06T06:59:43.968Z,1023
2017-12-06T07:00:09.449Z,1023.01
2017-12-06T07:00:34.930Z,1022.96
2017-12-06T07:01:00.464Z,1023
2017-12-06T07:01:25.941Z,1022.99
2017-12-06T07:01:51.445Z,1023
2017-12-06T07:02:16.945Z,1023.03
2017-12-06T07:02:42.509Z,1022.97
2017-12-06T07:03:07.909Z,1023
2017-12-06T07:03:33.432Z,1023.02
2017-12-06T07:03:58.931Z,1023.02
2017-12-06T07:04:24.420Z,1022.99
2017-12-06T07:04:49.931Z,1022.98
2017-12-06T07:05:15.443Z,1022.97
2017-12-06T07:05:40.930Z,1022.97
2017-12-06T07:06:06.426Z,1023
2017-12-06T07:06:31.899Z,1023
2017-12-06T07:06:57.377Z,1023
2017-12-06T07:07:56.269Z,1022.96
2017-12-06T07:08:21.764Z,1023.01
2017-12-06T07:08:47.274Z,1023.02
2017-12-06T07:09:12.744Z,1023
2017-12-06T07:09:38.241Z,1022.96
2017-12-06T07:10:03.732Z,1022.97
2017-12-06T07:10:29.179Z,1022.93
2017-12-06T07:10:54.725Z,1022.96
2017-12-06T07:12:13.639Z,1022.98
2017-12-06T07:12:39.136Z,1023
2017-12-06T07:13:04.616Z,1022.96
2017-12-06T07:14:09.216Z,1022.97
2017-12-06T07:14:34.655Z,1022.98
2017-12-06T07:15:00.156Z,1023
2017-12-06T07:15:25.607Z,1022.94
2017-12-06T07:15:51.121Z,1022.96
2017-12-06T07:16:16.604Z,1022.98
2017-12-06T07:16:42.170Z,1022.99
2017-12-06T07:17:07.680Z,1023.01
2017-12-06T07:17:33.159Z,1022.96
2017-12-06T07:17:58.636Z,1022.97
2017-12-06T07:18:24.117Z,1023.01
2017-12-06T07:18:49.668Z,1022.99
2017-12-06T07:19:15.174Z,1022.99
2017-12-06T07:19:40.692Z,1022.99
2017-12-06T07:20:06.170Z,1023.03
2017-12-06T07:20:31.685Z,1022.98
2017-12-06T07:20:57.207Z,1022.99
2017-12-06T07:21:22.698Z,1023
2017-12-06T07:21:48.155Z,1023.01
2017-12-06T07:22:13.666Z,1023.05
2017-12-06T07:22:39.215Z,1022.98
2017-12-06T07:23:04.649Z,1023.03
2017-12-06T07:23:30.084Z,1022.99
2017-12-06T07:23:55.582Z,1022.98
2017-12-06T07:24:21.044Z,1023.02
2017-12-06T07:24:46.498Z,1022.98
2017-12-06T07:25:12.023Z,1023.05
2017-12-06T07:25:37.514Z,1023.02
2017-12-06T07:26:37.040Z,1023.03
2017-12-06T07:27:02.534Z,1022.99
2017-12-06T07:27:28.021Z,1023.01
2017-12-06T07:27:53.518Z,1023
2017-12-06T07:28:18.975Z,1022.98
2017-12-06T07:28:44.483Z,1022.93
2017-12-06T07:29:10.017Z,1022.98
2017-12-06T07:29:35.493Z,1022.95
2017-12-06T07:30:00.982Z,1022.97
2017-12-06T07:30:26.747Z,1022.99
2017-12-06T07:30:52.236Z,1022.96
2017-12-06T07:31:17.908Z,1022.96
2017-12-06T07:31:43.438Z,1022.96
2017-12-06T07:32:08.945Z,1022.98
2017-12-06T07:32:34.436Z,1023.02
2017-12-06T07:32:59.948Z,1022.99
2017-12-06T07:33:25.440Z,1023.04
2017-12-06T07:33:50.938Z,1023.01
2017-12-06T07:34:16.412Z,1022.98
2017-12-06T07:34:41.981Z,1023.03
2017-12-06T07:35:07.436Z,1023.02
2017-12-06T07:35:32.940Z,1023.02
2017-12-06T07:35:58.434Z,1023
2017-12-06T07:36:23.900Z,1022.99
2017-12-06T07:36:49.415Z,1023.02
2017-12-06T07:37:14.931Z,1023.03
2017-12-06T07:37:40.408Z,1023.06
2017-12-06T07:38:05.895Z,1023.05
2017-12-06T07:38:31.433Z,1023.07
2017-12-06T07:38:56.909Z,1023.09
2017-12-06T07:39:22.408Z,1023.07
2017-12-06T07:39:47.894Z,1023.02
2017-12-06T07:40:13.400Z,1023.1
2017-12-06T07:40:38.896Z,1023.03
2017-12-06T07:41:04.544Z,1022.99
2017-12-06T07:41:30.024Z,1023.06
2017-12-06T07:41:55.545Z,1023.08
2017-12-06T07:42:21.055Z,1023.08
2017-12-06T07:42:46.503Z,1023.07
2017-12-06T07:43:11.999Z,1023.02
2017-12-06T07:43:37.552Z,1023.08
2017-12-06T07:44:03.061Z,1023.04
2017-12-06T07:44:28.563Z,1023.08
2017-12-06T07:44:54.050Z,1023.05
2017-12-06T07:45:19.526Z,1023.02
2017-12-06T07:45:44.987Z,1023.06
2017-12-06T07:46:10.466Z,1023.04
2017-12-06T07:46:35.967Z,1023.03
2017-12-06T07:47:01.455Z,1023.03
2017-12-06T07:47:27.001Z,1023.02
2017-12-06T07:47:52.520Z,1023.02
2017-12-06T07:48:18.047Z,1023.02
2017-12-06T07:48:43.517Z,1023.04
2017-12-06T07:49:09.025Z,1023.05
2017-12-06T07:49:34.517Z,1023.02
2017-12-06T07:50:00.008Z,1023.04
2017-12-06T07:50:25.543Z,1023.08
2017-12-06T07:50:51.058Z,1022.99
2017-12-06T07:51:16.519Z,1023.04
2017-12-06T07:51:42.005Z,1023.03
2017-12-06T07:52:07.529Z,1023.02
2017-12-06T07:52:33.046Z,1023.03
2017-12-06T07:52:58.538Z,1023.06
2017-12-06T07:54:07.272Z,1023.03
2017-12-06T07:54:32.768Z,1023
2017-12-06T07:54:58.270Z,1023.02
2017-12-06T07:55:23.763Z,1023.03
2017-12-06T07:55:49.326Z,1022.99
2017-12-06T07:56:14.815Z,1023.02
2017-12-06T07:56:40.379Z,1023
2017-12-06T07:57:05.838Z,1023
2017-12-06T07:57:31.325Z,1023.02
2017-12-06T07:57:56.965Z,1023.03
2017-12-06T07:58:22.410Z,1023.02
2017-12-06T07:58:47.921Z,1023.03
2017-12-06T07:59:13.392Z,1023.03
2017-12-06T07:59:38.884Z,1023.09
2017-12-06T08:00:04.378Z,1023.07
2017-12-06T08:00:29.867Z,1023.08
2017-12-06T08:00:55.359Z,1023.14
2017-12-06T08:01:20.818Z,1023.09
2017-12-06T08:01:46.315Z,1023.07
2017-12-06T08:02:11.836Z,1023.05
2017-12-06T08:02:37.410Z,1023.05
2017-12-06T08:03:02.982Z,1023.07
2017-12-06T08:03:28.551Z,1023.06
2017-12-06T08:03:54.036Z,1023.03
2017-12-06T08:04:19.538Z,1023.05
2017-12-06T08:04:45.009Z,1023.04
2017-12-06T08:05:10.506Z,1023.07
2017-12-06T08:05:36.008Z,1023.04
2017-12-06T08:06:01.505Z,1022.98
2017-12-06T08:06:26.963Z,1023.02
2017-12-06T08:06:52.444Z,1022.96
2017-12-06T08:07:17.958Z,1023
2017-12-06T08:07:43.449Z,1023.03
2017-12-06T08:08:08.969Z,1022.98
2017-12-06T08:09:17.708Z,1023.04
2017-12-06T08:09:43.180Z,1023.06
2017-12-06T08:10:08.665Z,1023.05
2017-12-06T08:10:34.165Z,1023.1
2017-12-06T08:10:59.628Z,1023.08
2017-12-06T08:11:25.089Z,1023.07
2017-12-06T08:11:50.585Z,1023.04
2017-12-06T08:12:49.105Z,1023.03
2017-12-06T08:13:14.581Z,1023.05
2017-12-06T08:13:40.099Z,1023.07
2017-12-06T08:14:05.561Z,1023.11
2017-12-06T08:14:31.057Z,1023.04
2017-12-06T08:14:56.514Z,1023.07
2017-12-06T08:15:21.993Z,1023.05
2017-12-06T08:15:47.447Z,1023.03
2017-12-06T08:16:12.953Z,1023.09
2017-12-06T08:16:38.435Z,1023.08
2017-12-06T08:17:03.936Z,1023.1
2017-12-06T08:17:29.395Z,1023.07
2017-12-06T08:17:54.895Z,1023.12
2017-12-06T08:18:20.388Z,1023.07
2017-12-06T08:18:45.883Z,1023.1
2017-12-06T08:19:59.660Z,1023.07
2017-12-06T08:20:25.145Z,1023.07
2017-12-06T08:20:50.622Z,1023.05
2017-12-06T08:21:16.063Z,1023.07
2017-12-06T08:21:41.557Z,1023.07
2017-12-06T08:22:07.001Z,1023.08
2017-12-06T08:23:10.609Z,1023.06
2017-12-06T08:23:36.104Z,1023.06
2017-12-06T08:24:01.599Z,1023.09
2017-12-06T08:24:27.061Z,1023.06
2017-12-06T08:24:52.553Z,1023.05
2017-12-06T08:25:18.002Z,1023.06
2017-12-06T08:25:43.531Z,1023.07
2017-12-06T08:26:09.021Z,1023.09
2017-12-06T08:26:34.517Z,1023.06
2017-12-06T08:26:59.978Z,1023.05
2017-12-06T08:27:25.442Z,1023.13
2017-12-06T08:27:51.008Z,1023.12
2017-12-06T08:28:16.476Z,1023.11
2017-12-06T08:28:41.941Z,1023.06
2017-12-06T08:29:07.411Z,1023.07
2017-12-06T08:29:32.890Z,1023.1
2017-12-06T08:29:58.393Z,1023.05
2017-12-06T08:30:23.895Z,1023.09
2017-12-06T08:30:49.331Z,1023.08
2017-12-06T08:31:14.820Z,1023.12
2017-12-06T08:32:18.442Z,1023.09
2017-12-06T08:32:43.976Z,1023.08
2017-12-06T08:33:09.409Z,1023.09
2017-12-06T08:33:34.866Z,1023.1
2017-12-06T08:34:00.315Z,1023.06
2017-12-06T08:34:25.841Z,1023.11
2017-12-06T08:34:51.397Z,1023.1
2017-12-06T08:35:16.837Z,1023.11
2017-12-06T08:35:42.340Z,1023.07
2017-12-06T08:36:07.811Z,1023.06
2017-12-06T08:36:33.259Z,1023.09
2017-12-06T08:36:58.724Z,1023.04
2017-12-06T08:37:24.185Z,1023.05
2017-12-06T08:37:49.659Z,1023.07
2017-12-06T08:38:15.148Z,1023.01
2017-12-06T08:38:40.617Z,1023.02
2017-12-06T08:39:06.093Z,1023.04
2017-12-06T08:39:31.567Z,1023.04
2017-12-06T08:39:57.018Z,1023.06
2017-12-06T08:40:22.483Z,1023.07
2017-12-06T08:40:47.964Z,1023.08
2017-12-06T08:41:13.475Z,1023.07
2017-12-06T08:41:38.902Z,1023.12
2017-12-06T08:42:04.417Z,1023.08
2017-12-06T08:42:29.951Z,1023.01
2017-12-06T08:42:55.326Z,1023.04
2017-12-06T08:43:20.775Z,1023
2017-12-06T08:43:46.239Z,1023.02
2017-12-06T08:44:11.700Z,1023.05
2017-12-06T08:44:37.168Z,1023.02
2017-12-06T08:45:02.639Z,1023.02
2017-12-06T08:45:28.138Z,1023.02
2017-12-06T08:45:53.677Z,1022.99
2017-12-06T08:46:19.118Z,1023.01
2017-12-06T08:46:44.616Z,1023.01
2017-12-06T08:47:10.076Z,1023.01
2017-12-06T08:48:23.870Z,1023.05
2017-12-06T08:48:49.367Z,1023.04
2017-12-06T08:49:14.861Z,1023.01
2017-12-06T08:49:40.356Z,1023.05
2017-12-06T08:50:05.817Z,1023.02
2017-12-06T08:50:31.287Z,1023.03
2017-12-06T08:50:56.780Z,1023.03
2017-12-06T08:51:22.249Z,1023.06
2017-12-06T08:51:47.702Z,1023.04
2017-12-06T08:52:13.155Z,1023.07
2017-12-06T08:52:38.635Z,1023.09
2017-12-06T08:53:04.104Z,1023.14
2017-12-06T08:53:29.595Z,1023.13
2017-12-06T08:53:55.095Z,1023.13
2017-12-06T08:55:14.028Z,1023.14
2017-12-06T08:55:39.549Z,1023.09
2017-12-06T08:56:05.051Z,1023.09
2017-12-06T08:56:30.540Z,1023.11
2017-12-06T08:56:56.012Z,1023.1
2017-12-06T08:58:09.999Z,1023.09
2017-12-06T08:58:35.542Z,1023.07
2017-12-06T08:59:00.977Z,1023.11
2017-12-06T08:59:26.420Z,1023.07
2017-12-06T08:59:51.920Z,1023.07
2017-12-06T09:00:17.420Z,1023.06
2017-12-06T09:00:42.987Z,1023.09
2017-12-06T09:01:08.505Z,1023.1
2017-12-06T09:01:33.985Z,1023.02
2017-12-06T09:01:59.476Z,1023.11
2017-12-06T09:02:24.937Z,1023.07
2017-12-06T09:02:50.445Z,1023.09
2017-12-06T09:03:15.946Z,1023.05
2017-12-06T09:03:41.416Z,1023.07
2017-12-06T09:04:06.910Z,1023.05
2017-12-06T09:04:32.388Z,1023.04
2017-12-06T09:04:57.891Z,1023.02
2017-12-06T09:05:23.342Z,1023.09
2017-12-06T09:05:48.823Z,1023.1
2017-12-06T09:06:14.378Z,1023.11
2017-12-06T09:06:39.844Z,1023.1
2017-12-06T09:07:05.345Z,1023.1
2017-12-06T09:07:30.863Z,1023.03
2017-12-06T09:07:56.340Z,1023.1
2017-12-06T09:08:21.784Z,1023.06
2017-12-06T09:08:47.319Z,1023.02
2017-12-06T09:09:12.806Z,1023.06
2017-12-06T09:09:38.266Z,1023.03
2017-12-06T09:10:03.746Z,1023.09
2017-12-06T09:10:29.297Z,1023.06
2017-12-06T09:10:54.814Z,1023.07
2017-12-06T09:11:20.302Z,1023.07
2017-12-06T09:12:18.862Z,1023.05
2017-12-06T09:12:44.347Z,1023
2017-12-06T09:13:09.814Z,1023.07
2017-12-06T09:14:18.535Z,1023.03
2017-12-06T09:14:44.030Z,1023.07
2017-12-06T09:15:09.545Z,1023.07
2017-12-06T09:15:34.948Z,1023.07
2017-12-06T09:16:00.468Z,1023.08
2017-12-06T09:16:26.061Z,1023.03
2017-12-06T09:16:51.536Z,1023.1
2017-12-06T09:17:17.075Z,1023.07
2017-12-06T09:17:42.581Z,1023.1
2017-12-06T09:18:08.107Z,1023.06
2017-12-06T09:18:33.589Z,1023.07
2017-12-06T09:18:59.065Z,1023.14
2017-12-06T09:19:24.626Z,1023.14
2017-12-06T09:19:50.067Z,1023.09
2017-12-06T09:20:15.535Z,1023.1
2017-12-06T09:20:41.047Z,1023.09
2017-12-06T09:21:06.526Z,1023.14
2017-12-06T09:21:32.039Z,1023.14
2017-12-06T09:21:57.450Z,1023.14
2017-12-06T09:22:22.933Z,1023.1
2017-12-06T09:22:48.488Z,1023.08
2017-12-06T09:23:13.951Z,1023.1
2017-12-06T09:23:39.416Z,1023.09
2017-12-06T09:24:04.914Z,1023.06
2017-12-06T09:24:30.369Z,1023.11
2017-12-06T09:24:55.865Z,1023.09
2017-12-06T09:25:21.380Z,1023.07
2017-12-06T09:25:46.826Z,1023.06
2017-12-06T09:26:12.295Z,1023.08
2017-12-06T09:26:37.787Z,1023.1
2017-12-06T09:27:03.211Z,1023.08
2017-12-06T09:27:28.698Z,1023.09
2017-12-06T09:27:54.191Z,1023.09
2017-12-06T09:28:19.671Z,1023.1
2017-12-06T09:28:45.112Z,1023.13
2017-12-06T09:29:10.563Z,1023.1
2017-12-06T09:29:36.010Z,1023.14
2017-12-06T09:30:01.469Z,1023.11
2017-12-06T09:30:26.955Z,1023.13
2017-12-06T09:30:52.469Z,1023.16
2017-12-06T09:31:17.948Z,1023.19
2017-12-06T09:31:43.442Z,1023.08
2017-12-06T09:32:08.901Z,1023.11
2017-12-06T09:32:34.385Z,1023.1
2017-12-06T09:32:59.907Z,1023.13
2017-12-06T09:33:25.446Z,1023.09
2017-12-06T09:33:50.880Z,1023.08
2017-12-06T09:34:16.354Z,1023.05
2017-12-06T09:34:41.889Z,1023.09
2017-12-06T09:35:07.320Z,1023.13
2017-12-06T09:35:32.832Z,1023.08
2017-12-06T09:35:58.310Z,1023.08
2017-12-06T09:36:23.796Z,1023.11
2017-12-06T09:36:49.296Z,1023.11
2017-12-06T09:37:14.782Z,1023.13
2017-12-06T09:37:40.249Z,1023.12
2017-12-06T09:38:05.752Z,1023.13
2017-12-06T09:38:31.209Z,1023.15
2017-12-06T09:38:56.742Z,1023.13
2017-12-06T09:39:22.206Z,1023.13
2017-12-06T09:39:47.693Z,1023.13
2017-12-06T09:40:13.131Z,1023.15
2017-12-06T09:40:38.630Z,1023.13
2017-12-06T09:41:04.133Z,1023.17
2017-12-06T09:41:29.652Z,1023.19
2017-12-06T09:41:55.087Z,1023.19
2017-12-06T09:42:20.585Z,1023.13
2017-12-06T09:42:46.070Z,1023.15
2017-12-06T09:43:11.492Z,1023.22
2017-12-06T09:43:36.982Z,1023.21
2017-12-06T09:44:02.412Z,1023.16
2017-12-06T09:44:27.908Z,1023.2
2017-12-06T09:44:53.409Z,1023.18
2017-12-06T09:45:18.940Z,1023.16
2017-12-06T09:45:44.399Z,1023.09
2017-12-06T09:46:09.930Z,1023.18
2017-12-06T09:46:35.435Z,1023.13
2017-12-06T09:47:00.931Z,1023.15
2017-12-06T09:48:09.624Z,1023.19
2017-12-06T09:48:35.108Z,1023.15
2017-12-06T09:49:00.621Z,1023.15
2017-12-06T09:49:26.094Z,1023.21
2017-12-06T09:49:51.591Z,1023.15
2017-12-06T09:50:17.059Z,1023.17
2017-12-06T09:50:42.535Z,1023.19
2017-12-06T09:51:07.987Z,1023.17
2017-12-06T09:51:33.483Z,1023.15
2017-12-06T09:51:59.029Z,1023.18
2017-12-06T09:52:24.492Z,1023.19
2017-12-06T09:52:49.990Z,1023.22
2017-12-06T09:53:15.485Z,1023.23
2017-12-06T09:53:40.939Z,1023.25
2017-12-06T09:54:49.626Z,1023.19
2017-12-06T09:55:15.130Z,1023.23
2017-12-06T09:55:40.630Z,1023.23
2017-12-06T09:56:06.176Z,1023.21
2017-12-06T09:56:31.704Z,1023.21
2017-12-06T09:56:57.129Z,1023.21
2017-12-06T09:57:22.631Z,1023.21
2017-12-06T09:57:48.123Z,1023.2
2017-12-06T09:58:13.632Z,1023.23
2017-12-06T09:58:39.118Z,1023.24
2017-12-06T09:59:04.588Z,1023.26
2017-12-06T09:59:30.068Z,1023.3
2017-12-06T09:59:55.559Z,1023.25
2017-12-06T10:00:21.046Z,1023.28
2017-12-06T10:00:46.515Z,1023.27
2017-12-06T10:01:12.014Z,1023.26
2017-12-06T10:01:37.478Z,1023.25
2017-12-06T10:02:46.170Z,1023.3
2017-12-06T10:03:11.653Z,1023.29
2017-12-06T10:03:37.141Z,1023.32
2017-12-06T10:04:02.609Z,1023.3
2017-12-06T10:04:28.070Z,1023.27
2017-12-06T10:04:53.529Z,1023.3
2017-12-06T10:05:19.005Z,1023.25
2017-12-06T10:05:44.477Z,1023.26
2017-12-06T10:06:48.101Z,1023.3
2017-12-06T10:07:13.579Z,1023.25
2017-12-06T10:07:39.051Z,1023.25
2017-12-06T10:08:04.539Z,1023.19
2017-12-06T10:08:30.067Z,1023.21
2017-12-06T10:08:55.479Z,1023.22
2017-12-06T10:09:20.932Z,1023.2
2017-12-06T10:09:46.399Z,1023.23
2017-12-06T10:10:11.881Z,1023.23
2017-12-06T10:10:37.367Z,1023.26
2017-12-06T10:11:02.778Z,1023.2
2017-12-06T10:11:28.233Z,1023.22
2017-12-06T10:11:53.777Z,1023.2
2017-12-06T10:12:19.219Z,1023.2
2017-12-06T10:12:44.705Z,1023.22
2017-12-06T10:13:10.172Z,1023.22
2017-12-06T10:13:35.629Z,1023.2
2017-12-06T10:14:01.117Z,1023.19
2017-12-06T10:14:26.603Z,1023.12
2017-12-06T10:14:52.051Z,1023.14
2017-12-06T10:15:17.509Z,1023.14
2017-12-06T10:15:42.983Z,1023.12
2017-12-06T10:16:08.456Z,1023.1
2017-12-06T10:16:33.949Z,1023.11
2017-12-06T10:16:59.386Z,1023.08
2017-12-06T10:17:24.847Z,1023.14
2017-12-06T10:17:50.326Z,1023.13
2017-12-06T10:18:15.785Z,1023.08
2017-12-06T10:18:41.298Z,1023.15
2017-12-06T10:19:06.771Z,1023.1
2017-12-06T10:19:32.249Z,1023.1
2017-12-06T10:19:57.756Z,1023.08
2017-12-06T10:20:23.234Z,1023.05
2017-12-06T10:20:48.705Z,1023.06
2017-12-06T10:21:14.191Z,1023.05
2017-12-06T10:21:39.639Z,1023.01
2017-12-06T10:22:05.113Z,1023.05
2017-12-06T10:22:30.558Z,1023.05
2017-12-06T10:22:56.023Z,1023.12
2017-12-06T10:23:21.511Z,1023.05
2017-12-06T10:23:46.975Z,1023.08
2017-12-06T10:24:12.443Z,1023.07
2017-12-06T10:24:37.893Z,1023.07
2017-12-06T10:25:03.335Z,1023.04
2017-12-06T10:25:28.811Z,1023.11
2017-12-06T10:25:54.296Z,1023.06
2017-12-06T10:26:19.751Z,1023.09
2017-12-06T10:26:45.215Z,1023.04
2017-12-06T10:27:10.664Z,1023.05
2017-12-06T10:27:36.142Z,1023.05
2017-12-06T10:28:01.587Z,1023.01
2017-12-06T10:28:27.121Z,1023.02
2017-12-06T10:28:52.600Z,1023.03
2017-12-06T10:29:18.059Z,1023.04
2017-12-06T10:29:43.545Z,1023
2017-12-06T10:30:09.041Z,1023.01
2017-12-06T10:30:34.528Z,1023.03
2017-12-06T10:30:59.974Z,1022.99
2017-12-06T10:31:25.435Z,1022.97
2017-12-06T10:31:50.942Z,1023.03
2017-12-06T10:32:16.434Z,1023
2017-12-06T10:32:41.958Z,1022.98